createdAt,value
2022-08-02T00:00:30.809Z,1007.7
2022-08-02T00:03:30.920Z,1007.67
2022-08-02T00:06:30.810Z,1007.69
2022-08-02T00:09:30.805Z,1007.68
2022-08-02T00:12:30.804Z,1007.62
2022-08-02T00:15:30.806Z,1007.59
2022-08-02T00:18:30.813Z,1007.56
2022-08-02T00:21:30.812Z,1007.52
2022-08-02T00:24:31.155Z,1007.52
2022-08-02T00:27:30.834Z,1007.51
2022-08-02T00:30:30.819Z,1007.53
2022-08-02T00:34:05.464Z,1007.58
2022-08-02T00:36:30.813Z,1007.58
2022-08-02T00:39:34.197Z,1007.58
2022-08-02T00:42:30.811Z,1007.63
2022-08-02T00:46:01.887Z,1007.68
2022-08-02T00:48:30.814Z,1007.73
2022-08-02T00:51:30.812Z,1007.71
2022-08-02T00:54:30.817Z,1007.71
2022-08-02T00:57:30.815Z,1007.73
2022-08-02T01:00:30.817Z,1007.72
2022-08-02T01:03:30.820Z,1007.72
2022-08-02T01:06:30.820Z,1007.75
2022-08-02T01:09:30.821Z,1007.74
2022-08-02T01:12:30.812Z,1007.71
2022-08-02T01:15:35.812Z,1007.72
2022-08-02T01:18:30.819Z,1007.76
2022-08-02T01:21:30.822Z,1007.75
2022-08-02T01:24:30.814Z,1007.78
2022-08-02T01:27:30.833Z,1007.71
2022-08-02T01:30:30.827Z,1007.7
2022-08-02T01:33:30.824Z,1007.65
2022-08-02T01:36:30.827Z,1007.57
2022-08-02T01:39:32.431Z,1007.51
2022-08-02T01:42:30.820Z,1007.5
2022-08-02T01:45:30.827Z,1007.55
2022-08-02T01:48:30.828Z,1007.55
2022-08-02T01:51:32.905Z,1007.53
2022-08-02T01:54:30.827Z,1007.5
2022-08-02T01:57:30.832Z,1007.55
2022-08-02T02:00:30.832Z,1007.58
2022-08-02T02:03:30.828Z,1007.6
2022-08-02T02:06:30.836Z,1007.65
2022-08-02T02:09:30.883Z,1007.6
2022-08-02T02:12:30.826Z,1007.59
2022-08-02T02:15:30.840Z,1007.62
2022-08-02T02:18:30.829Z,1007.63
2022-08-02T02:21:31.452Z,1007.62
2022-08-02T02:24:30.830Z,1007.62
2022-08-02T02:27:30.835Z,1007.61
2022-08-02T02:30:30.831Z,1007.61
2022-08-02T02:33:30.832Z,1007.67
2022-08-02T02:36:30.836Z,1007.7
2022-08-02T02:39:30.833Z,1007.7
2022-08-02T02:42:30.834Z,1007.72
2022-08-02T02:45:30.828Z,1007.74
2022-08-02T02:48:30.834Z,1007.74
2022-08-02T02:51:30.850Z,1007.74
2022-08-02T02:54:33.904Z,1007.73
2022-08-02T02:57:30.838Z,1007.76
2022-08-02T03:00:30.833Z,1007.75
2022-08-02T03:03:30.834Z,1007.7
2022-08-02T03:06:30.839Z,1007.74
2022-08-02T03:09:30.831Z,1007.73
2022-08-02T03:12:32.328Z,1007.7
2022-08-02T03:15:30.839Z,1007.68
2022-08-02T03:18:30.842Z,1007.65
2022-08-02T03:21:30.843Z,1007.66
2022-08-02T03:24:30.841Z,1007.58
2022-08-02T03:27:30.839Z,1007.56
2022-08-02T03:30:30.837Z,1007.52
2022-08-02T03:33:30.835Z,1007.6
2022-08-02T03:36:30.840Z,1007.65
2022-08-02T03:39:30.839Z,1007.67
2022-08-02T03:42:30.838Z,1007.67
2022-08-02T03:45:30.841Z,1007.67
2022-08-02T03:48:31.957Z,1007.58
2022-08-02T03:51:30.838Z,1007.56
2022-08-02T03:54:32.858Z,1007.57
2022-08-02T03:57:30.842Z,1007.58
2022-08-02T04:00:30.844Z,1007.59
2022-08-02T04:03:30.851Z,1007.57
2022-08-02T04:06:30.846Z,1007.57
2022-08-02T04:09:30.847Z,1007.53
2022-08-02T04:12:30.845Z,1007.54
2022-08-02T04:15:30.849Z,1007.53
2022-08-02T04:18:30.901Z,1007.54
2022-08-02T04:21:42.627Z,1007.58
2022-08-02T04:24:30.865Z,1007.53
2022-08-02T04:27:51.467Z,1007.55
2022-08-02T04:30:30.856Z,1007.58
2022-08-02T04:33:30.857Z,1007.62
2022-08-02T04:36:31.880Z,1007.61
2022-08-02T04:39:30.859Z,1007.68
2022-08-02T04:42:30.851Z,1007.77
2022-08-02T04:45:30.878Z,1007.8
2022-08-02T04:48:30.852Z,1007.83
2022-08-02T04:51:37.631Z,1007.88
2022-08-02T04:54:30.855Z,1007.91
2022-08-02T04:57:30.860Z,1007.99
2022-08-02T05:00:30.870Z,1008.06
2022-08-02T05:03:30.859Z,1008.11
2022-08-02T05:06:30.861Z,1008.11
2022-08-02T05:09:30.855Z,1008.21
2022-08-02T05:12:30.863Z,1008.22
2022-08-02T05:15:33.360Z,1008.21
2022-08-02T05:18:30.860Z,1008.1
2022-08-02T05:21:30.860Z,1008.1
2022-08-02T05:24:30.864Z,1008.17
2022-08-02T05:27:30.859Z,1008.18
2022-08-02T05:30:30.857Z,1008.17
2022-08-02T05:33:30.861Z,1008.12
2022-08-02T05:36:30.866Z,1008.07
2022-08-02T05:39:31.804Z,1008.08
2022-08-02T05:42:30.857Z,1008.14
2022-08-02T05:45:30.865Z,1008.18
2022-08-02T05:48:31.826Z,1008.19
2022-08-02T05:51:30.863Z,1008.23
2022-08-02T05:54:30.863Z,1008.2
2022-08-02T05:57:30.869Z,1008.18
2022-08-02T06:00:30.868Z,1008.18
2022-08-02T06:03:30.873Z,1008.27
2022-08-02T06:06:30.868Z,1008.32
2022-08-02T06:09:30.873Z,1008.31
2022-08-02T06:12:30.867Z,1008.31
2022-08-02T06:15:30.873Z,1008.32
2022-08-02T06:18:30.871Z,1008.29
2022-08-02T06:22:30.103Z,1008.29
2022-08-02T06:24:30.867Z,1008.34
2022-08-02T06:27:30.889Z,1008.31
2022-08-02T06:30:30.870Z,1008.34
2022-08-02T06:33:30.873Z,1008.34
2022-08-02T06:36:30.868Z,1008.33
2022-08-02T06:39:30.871Z,1008.31
2022-08-02T06:42:30.869Z,1008.31
2022-08-02T06:45:30.868Z,1008.27
2022-08-02T06:48:30.865Z,1008.3
2022-08-02T06:51:30.888Z,1008.27
2022-08-02T06:54:30.868Z,1008.24
2022-08-02T06:57:30.878Z,1008.23
2022-08-02T07:00:30.867Z,1008.28
2022-08-02T07:03:30.875Z,1008.29
2022-08-02T07:06:30.869Z,1008.29
2022-08-02T07:09:30.866Z,1008.26
2022-08-02T07:12:31.016Z,1008.26
2022-08-02T07:15:30.874Z,1008.23
2022-08-02T07:18:30.881Z,1008.17
2022-08-02T07:21:56.171Z,1008.17
2022-08-02T07:24:30.871Z,1008.17
2022-08-02T07:27:30.882Z,1008.18
2022-08-02T07:30:30.879Z,1008.15
2022-08-02T07:33:37.275Z,1008.1
2022-08-02T07:36:30.886Z,1008.11
2022-08-02T07:39:30.883Z,1008.07
2022-08-02T07:42:30.882Z,1008.1
2022-08-02T07:45:30.883Z,1008.15
2022-08-02T07:48:30.877Z,1008.08
2022-08-02T07:51:30.882Z,1008.06
2022-08-02T07:54:30.892Z,1008.02
2022-08-02T07:57:30.886Z,1008.03
2022-08-02T08:00:30.892Z,1008.07
2022-08-02T08:03:30.883Z,1008.07
2022-08-02T08:06:30.908Z,1008.03
2022-08-02T08:09:30.895Z,1008.03
2022-08-02T08:12:30.902Z,1007.99
2022-08-02T08:15:30.903Z,1007.95
2022-08-02T08:18:30.903Z,1007.94
2022-08-02T08:21:30.904Z,1007.96
2022-08-02T08:24:30.896Z,1007.94
2022-08-02T08:27:30.897Z,1007.89
2022-08-02T08:30:30.904Z,1007.91
2022-08-02T08:33:30.902Z,1007.91
2022-08-02T08:36:30.902Z,1007.93
2022-08-02T08:39:30.901Z,1007.97
2022-08-02T08:42:30.946Z,1008.03
2022-08-02T08:45:30.905Z,1008.06
2022-08-02T08:48:31.817Z,1008.01
2022-08-02T08:51:30.901Z,1008.01
2022-08-02T08:54:30.907Z,1007.99
2022-08-02T08:57:30.913Z,1007.98
2022-08-02T09:00:30.905Z,1007.94
2022-08-02T09:03:33.781Z,1007.9
2022-08-02T09:06:30.901Z,1007.88
2022-08-02T09:09:30.908Z,1007.87
2022-08-02T09:12:30.900Z,1007.86
2022-08-02T09:15:30.905Z,1007.88
2022-08-02T09:18:30.910Z,1007.8
2022-08-02T09:21:30.909Z,1007.78
2022-08-02T09:24:31.612Z,1007.75
2022-08-02T09:27:30.913Z,1007.85
2022-08-02T09:30:30.908Z,1007.83
2022-08-02T09:33:30.956Z,1007.89
2022-08-02T09:36:30.907Z,1007.84
2022-08-02T09:39:30.909Z,1007.81
2022-08-02T09:42:30.925Z,1007.77
2022-08-02T09:45:30.915Z,1007.8
2022-08-02T09:48:30.905Z,1007.77
2022-08-02T09:51:30.908Z,1007.76
2022-08-02T09:54:30.916Z,1007.8
2022-08-02T09:57:30.904Z,1007.75
2022-08-02T10:00:50.564Z,1007.72
2022-08-02T10:03:32.006Z,1007.69
2022-08-02T10:06:30.911Z,1007.66
2022-08-02T10:09:30.905Z,1007.65
2022-08-02T10:12:30.917Z,1007.64
2022-08-02T10:15:30.903Z,1007.62
2022-08-02T10:18:38.558Z,1007.54
2022-08-02T10:21:30.903Z,1007.5
2022-08-02T10:24:30.905Z,1007.43
2022-08-02T10:27:43.131Z,1007.4
2022-08-02T10:30:30.896Z,1007.37
2022-08-02T10:33:30.909Z,1007.38
2022-08-02T10:36:30.902Z,1007.41
2022-08-02T10:39:30.907Z,1007.42
2022-08-02T10:42:30.954Z,1007.43
2022-08-02T10:45:30.942Z,1007.32
2022-08-02T10:48:30.939Z,1007.28
2022-08-02T10:51:34.569Z,1007.26
2022-08-02T10:54:30.937Z,1007.24
2022-08-02T10:57:30.944Z,1007.23
2022-08-02T11:00:30.937Z,1007.24
2022-08-02T11:03:30.942Z,1007.24
2022-08-02T11:06:30.940Z,1007.26
2022-08-02T11:09:32.625Z,1007.21
2022-08-02T11:12:30.933Z,1007.18
2022-08-02T11:15:30.928Z,1007.11
2022-08-02T11:18:30.926Z,1007.15
2022-08-02T11:21:30.930Z,1007.1
2022-08-02T11:24:30.932Z,1007.07
2022-08-02T11:27:30.932Z,1007.06
2022-08-02T11:30:30.930Z,1007.07
2022-08-02T11:33:30.944Z,1007.07
2022-08-02T11:36:30.934Z,1006.98
2022-08-02T11:39:30.932Z,1007.03
2022-08-02T11:42:30.928Z,1006.97
2022-08-02T11:45:30.928Z,1006.93
2022-08-02T11:48:30.940Z,1006.96
2022-08-02T11:51:30.928Z,1006.93
2022-08-02T11:54:30.930Z,1006.93
2022-08-02T11:58:02.902Z,1006.92
2022-08-02T12:00:31.027Z,1006.88
2022-08-02T12:03:30.978Z,1006.91
2022-08-02T12:06:30.933Z,1006.86
2022-08-02T12:09:30.946Z,1006.83
2022-08-02T12:12:30.935Z,1006.83
2022-08-02T12:15:30.927Z,1006.86
2022-08-02T12:18:30.925Z,1006.86
2022-08-02T12:21:30.939Z,1006.8
2022-08-02T12:24:30.927Z,1006.78
2022-08-02T12:27:30.960Z,1006.75
2022-08-02T12:30:30.947Z,1006.76
2022-08-02T12:33:30.954Z,1006.79
2022-08-02T12:36:30.946Z,1006.8
2022-08-02T12:39:31.545Z,1006.87
2022-08-02T12:42:30.953Z,1006.8
2022-08-02T12:45:36.560Z,1006.79
2022-08-02T12:48:36.589Z,1006.75
2022-08-02T12:51:50.492Z,1006.74
2022-08-02T12:54:32.029Z,1006.72
2022-08-02T12:57:30.945Z,1006.68
2022-08-02T13:00:30.954Z,1006.64
2022-08-02T13:04:08.132Z,1006.63
2022-08-02T13:06:39.681Z,1006.54
2022-08-02T13:09:30.953Z,1006.53
2022-08-02T13:12:30.956Z,1006.53
2022-08-02T13:15:46.766Z,1006.45
2022-08-02T13:18:30.958Z,1006.48
2022-08-02T13:21:31.911Z,1006.47
2022-08-02T13:24:39.023Z,1006.45
2022-08-02T13:27:30.957Z,1006.47
2022-08-02T13:30:30.955Z,1006.48
2022-08-02T13:33:30.958Z,1006.45
2022-08-02T13:36:30.956Z,1006.42
2022-08-02T13:39:30.963Z,1006.43
2022-08-02T13:42:30.956Z,1006.35
2022-08-02T13:45:30.948Z,1006.32
2022-08-02T13:48:30.957Z,1006.26
2022-08-02T13:51:30.957Z,1006.19
2022-08-02T13:54:30.957Z,1006.1
2022-08-02T13:57:30.952Z,1006.08
2022-08-02T14:00:34.571Z,1006.06
2022-08-02T14:04:05.683Z,1006.03
2022-08-02T14:06:30.957Z,1006.05
2022-08-02T14:09:30.955Z,1006.02
2022-08-02T14:12:30.950Z,1006.07
2022-08-02T14:15:30.956Z,1006.03
2022-08-02T14:18:30.993Z,1005.97
2022-08-02T14:21:31.015Z,1005.94
2022-08-02T14:24:31.009Z,1005.9
2022-08-02T14:27:31.031Z,1005.81
2022-08-02T14:30:31.043Z,1005.78
2022-08-02T14:33:31.056Z,1005.85
2022-08-02T14:36:31.052Z,1005.81
2022-08-02T14:39:42.578Z,1005.8
2022-08-02T14:42:30.949Z,1005.79
2022-08-02T14:45:36.587Z,1005.73
2022-08-02T14:48:30.965Z,1005.73
2022-08-02T14:51:30.946Z,1005.71
2022-08-02T14:54:31.257Z,1005.64
2022-08-02T14:57:30.948Z,1005.61
2022-08-02T15:00:30.963Z,1005.57
2022-08-02T15:03:30.963Z,1005.63
2022-08-02T15:06:30.990Z,1005.66
2022-08-02T15:09:30.959Z,1005.65
2022-08-02T15:12:30.955Z,1005.63
2022-08-02T15:15:30.960Z,1005.6
2022-08-02T15:18:30.963Z,1005.55
2022-08-02T15:21:40.765Z,1005.5
2022-08-02T15:24:30.960Z,1005.5
2022-08-02T15:27:30.960Z,1005.54
2022-08-02T15:30:30.966Z,1005.5
2022-08-02T15:33:30.958Z,1005.49
2022-08-02T15:36:30.963Z,1005.45
2022-08-02T15:39:30.969Z,1005.43
2022-08-02T15:42:31.117Z,1005.42
2022-08-02T15:45:30.971Z,1005.36
2022-08-02T15:48:30.953Z,1005.35
2022-08-02T15:51:30.969Z,1005.34
2022-08-02T15:54:30.952Z,1005.33
2022-08-02T15:57:30.958Z,1005.29
2022-08-02T16:00:30.965Z,1005.29
2022-08-02T16:03:30.956Z,1005.3
2022-08-02T16:06:30.954Z,1005.29
2022-08-02T16:09:30.968Z,1005.29
2022-08-02T16:12:32.132Z,1005.26
2022-08-02T16:15:30.958Z,1005.22
2022-08-02T16:18:30.964Z,1005.16
2022-08-02T16:21:30.995Z,1005.12
2022-08-02T16:24:30.953Z,1005.12
2022-08-02T16:27:30.974Z,1005.1
2022-08-02T16:30:30.967Z,1005.09
2022-08-02T16:33:30.961Z,1005.05
2022-08-02T16:36:30.953Z,1005.09
2022-08-02T16:39:30.962Z,1005.1
2022-08-02T16:42:30.959Z,1005.08
2022-08-02T16:45:32.394Z,1005.07
2022-08-02T16:48:30.962Z,1005.02
2022-08-02T16:51:31.139Z,1005.03
2022-08-02T16:54:30.957Z,1005.02
2022-08-02T16:57:43.013Z,1004.97
2022-08-02T17:00:30.957Z,1004.92
2022-08-02T17:03:33.485Z,1004.91
2022-08-02T17:06:30.957Z,1004.96
2022-08-02T17:09:30.961Z,1005
2022-08-02T17:12:30.957Z,1004.99
2022-08-02T17:15:53.247Z,1004.98
2022-08-02T17:18:30.968Z,1005.03
2022-08-02T17:21:30.974Z,1005.04
2022-08-02T17:24:30.958Z,1005.03
2022-08-02T17:27:30.966Z,1005
2022-08-02T17:30:30.965Z,1004.97
2022-08-02T17:33:30.959Z,1005.02
2022-08-02T17:36:30.961Z,1005.02
2022-08-02T17:39:33.634Z,1005.02
2022-08-02T17:42:30.967Z,1005.02
2022-08-02T17:48:36.816Z,1004.97
2022-08-02T17:51:32.964Z,1004.94
2022-08-02T17:54:30.963Z,1004.92
2022-08-02T17:57:56.395Z,1004.96
2022-08-02T18:00:30.966Z,1004.98
2022-08-02T18:03:30.964Z,1004.97
2022-08-02T18:06:30.967Z,1004.96
2022-08-02T18:09:30.974Z,1004.99
2022-08-02T18:12:30.967Z,1005
2022-08-02T18:15:32.470Z,1004.98
2022-08-02T18:18:30.980Z,1005
2022-08-02T18:21:30.978Z,1004.98
2022-08-02T18:24:30.978Z,1004.96
2022-08-02T18:27:30.982Z,1004.99
2022-08-02T18:30:30.981Z,1005.01
2022-08-02T18:33:56.309Z,1005.03
2022-08-02T18:36:30.978Z,1005.03
2022-08-02T18:39:33.041Z,1005.02
2022-08-02T18:42:30.977Z,1005.07
2022-08-02T18:45:36.816Z,1005.07
2022-08-02T18:48:30.981Z,1005.05
2022-08-02T18:51:33.852Z,1005.05
2022-08-02T18:54:34.254Z,1005.11
2022-08-02T18:57:59.795Z,1005.11
2022-08-02T19:00:30.986Z,1005.12
2022-08-02T19:03:30.979Z,1005.1
2022-08-02T19:06:31.017Z,1005.07
2022-08-02T19:09:30.978Z,1005.08
2022-08-02T19:12:30.990Z,1005.03
2022-08-02T19:15:30.980Z,1005.01
2022-08-02T19:18:30.984Z,1005.05
2022-08-02T19:22:15.646Z,1005.04
2022-08-02T19:24:30.989Z,1005.04
2022-08-02T19:27:32.410Z,1005.05
2022-08-02T19:30:30.988Z,1005.06
2022-08-02T19:33:54.631Z,1005.07
2022-08-02T19:36:30.987Z,1005.13
2022-08-02T19:39:30.984Z,1005.13
2022-08-02T19:42:30.979Z,1005.12
2022-08-02T19:48:30.991Z,1005.12
2022-08-02T19:51:49.418Z,1005.17
2022-08-02T19:54:35.970Z,1005.19
2022-08-02T19:57:34.550Z,1005.19
2022-08-02T20:00:30.991Z,1005.18
2022-08-02T20:03:51.142Z,1005.15
2022-08-02T20:06:30.988Z,1005.15
2022-08-02T20:09:33.077Z,1005.17
2022-08-02T20:12:35.319Z,1005.16
2022-08-02T20:15:34.673Z,1005.19
2022-08-02T20:18:30.998Z,1005.16
2022-08-02T20:21:34.556Z,1005.14
2022-08-02T20:24:30.990Z,1005.12
2022-08-02T20:27:30.988Z,1005.11
2022-08-02T20:30:31.018Z,1005.13
2022-08-02T20:33:30.990Z,1005.12
2022-08-02T20:36:30.995Z,1005.13
2022-08-02T20:39:42.821Z,1005.15
2022-08-02T20:42:30.990Z,1005.14
2022-08-02T20:45:31.003Z,1005.18
2022-08-02T20:48:31.016Z,1005.17
2022-08-02T20:51:33.586Z,1005.21
2022-08-02T20:54:31.014Z,1005.21
2022-08-02T20:57:36.069Z,1005.19
2022-08-02T21:00:30.991Z,1005.23
2022-08-02T21:03:32.453Z,1005.24
2022-08-02T21:06:30.998Z,1005.27
2022-08-02T21:09:50.176Z,1005.34
2022-08-02T21:12:31.294Z,1005.35
2022-08-02T21:15:30.989Z,1005.38
2022-08-02T21:18:40.518Z,1005.42
2022-08-02T21:21:31.010Z,1005.42
2022-08-02T21:24:30.998Z,1005.4
2022-08-02T21:27:51.543Z,1005.41
2022-08-02T21:30:31.000Z,1005.4
2022-08-02T21:33:47.367Z,1005.44
2022-08-02T21:36:32.868Z,1005.43
2022-08-02T21:39:31.006Z,1005.42
2022-08-02T21:42:31.003Z,1005.44
2022-08-02T21:45:31.002Z,1005.4
2022-08-02T21:48:31.007Z,1005.4
2022-08-02T21:51:34.108Z,1005.4
2022-08-02T21:54:31.010Z,1005.42
2022-08-02T21:57:34.090Z,1005.45
2022-08-02T22:00:31.009Z,1005.45
2022-08-02T22:03:31.007Z,1005.42
2022-08-02T22:06:31.010Z,1005.41
2022-08-02T22:09:42.695Z,1005.47
2022-08-02T22:12:31.010Z,1005.48
2022-08-02T22:15:35.950Z,1005.51
2022-08-02T22:18:31.007Z,1005.49
2022-08-02T22:21:33.604Z,1005.5
2022-08-02T22:24:31.036Z,1005.55
2022-08-02T22:28:00.977Z,1005.58
2022-08-02T22:30:31.013Z,1005.57
2022-08-02T22:33:31.470Z,1005.56
2022-08-02T22:36:31.027Z,1005.61
2022-08-02T22:39:31.019Z,1005.6
2022-08-02T22:42:31.008Z,1005.6
2022-08-02T22:45:31.920Z,1005.65
2022-08-02T22:48:31.013Z,1005.61
2022-08-02T22:51:31.017Z,1005.61
2022-08-02T22:54:31.004Z,1005.62
2022-08-02T22:57:31.389Z,1005.61
2022-08-02T22:58:42.601Z,1004.98
2022-08-02T22:59:01.032Z,1005.11
2022-08-02T23:00:31.010Z,1005.62
2022-08-02T23:03:31.009Z,1005.67
2022-08-02T23:06:31.009Z,1005.67
2022-08-02T23:09:31.015Z,1005.6
2022-08-02T23:12:31.113Z,1005.62
2022-08-02T23:15:31.023Z,1005.59
2022-08-02T23:18:31.033Z,1005.57
2022-08-02T23:21:46.322Z,1005.6
2022-08-02T23:24:31.020Z,1005.59
2022-08-02T23:27:31.017Z,1005.59
2022-08-02T23:30:31.024Z,1005.58
2022-08-02T23:33:31.021Z,1005.59
2022-08-02T23:36:31.016Z,1005.57
2022-08-02T23:39:31.018Z,1005.64
2022-08-02T23:42:31.021Z,1005.66
2022-08-02T23:45:34.946Z,1005.69
2022-08-02T23:48:31.029Z,1005.68
2022-08-02T23:51:31.022Z,1005.73
2022-08-02T23:54:31.030Z,1005.76
2022-08-02T23:57:31.025Z,1005.81
